Time;durP1;ratioP1;P1;durP2;ratioP2;P2;SDS_P1;SDS_P2;PMS_P1;PMS_P2;Temp;Humidity;BMP_temperature;BMP_pressure;BME280_temperature;BME280_humidity;BME280_pressure;Samples;Min_cycle;Max_cycle;Signal;HPM_P1;HPM_P2
2024/01/29 11:18:19;;;;;;;;;37.67;34.67;;;;;;;;5123754;27;1324010;-73
2024/01/29 11:20:45;;;;;;;;;38.33;33.67;;;;;;;;5149776;27;8781;-72
2024/01/29 11:23:11;;;;;;;;;33.00;31.75;;;;;;;;5131077;27;8906;-74
2024/01/29 11:25:37;;;;;;;;;31.75;31.00;;;;;;;;5149680;27;9499;-72
2024/01/29 11:28:02;;;;;;;;;32.75;30.00;;;;;;;;5149757;27;8820;-72
2024/01/29 11:30:28;;;;;;;;;30.75;30.00;;;;;;;;5149381;27;11462;-72
2024/01/29 11:32:54;;;;;;;;;34.00;30.00;;;;;;;;5149405;27;8766;-71
2024/01/29 11:35:20;;;;;;;;;34.25;33.00;;;;;;;;5143097;27;8789;-68
2024/01/29 11:37:47;;;;;;;;;39.00;32.25;;;;;;;;5131810;27;11485;-68
2024/01/29 11:40:34;;;;;;;;;31.25;29.50;;;;;;;;5128817;27;8905;-68
2024/01/29 11:43:00;;;;;;;;;29.75;27.50;;;;;;;;5110125;27;11042;-68
2024/01/29 11:45:27;;;;;;;;;33.25;30.00;;;;;;;;5128726;27;10807;-67
2024/01/29 11:47:52;;;;;;;;;29.00;26.00;;;;;;;;5128392;27;8807;-68
2024/01/29 11:50:17;;;;;;;;;28.75;27.25;;;;;;;;5128410;27;10652;-67
2024/01/29 11:52:43;;;;;;;;;31.50;29.75;;;;;;;;5109054;27;8779;-67
2024/01/29 11:55:09;;;;;;;;;32.50;29.25;;;;;;;;5128364;27;8784;-68
2024/01/29 11:57:34;;;;;;;;;33.25;31.00;;;;;;;;5128227;27;8823;-67
2024/01/29 12:00:03;;;;;;;;;34.75;34.00;;;;;;;;5109592;27;8954;-68
2024/01/29 12:02:30;;;;;;;;;31.00;30.25;;;;;;;;5128068;27;8787;-67
2024/01/29 12:04:55;;;;;;;;;35.25;31.75;;;;;;;;5128088;27;11465;-67
2024/01/29 12:07:20;;;;;;;;;32.00;30.25;;;;;;;;5128070;27;11455;-67
2024/01/29 12:09:46;;;;;;;;;39.25;32.75;;;;;;;;5128570;27;8836;-68
2024/01/29 12:12:12;;;;;;;;;25.50;24.00;;;;;;;;5128106;27;9477;-68
2024/01/29 12:14:37;;;;;;;;;31.00;29.50;;;;;;;;5109649;27;8803;-67
2024/01/29 12:17:05;;;;;;;;;34.75;33.75;;;;;;;;5128038;27;11507;-69
2024/01/29 12:19:30;;;;;;;;;34.75;31.50;;;;;;;;5110096;27;8830;-69
2024/01/29 12:21:55;;;;;;;;;33.50;28.25;;;;;;;;5109274;27;11486;-69
2024/01/29 12:24:21;;;;;;;;;35.50;30.00;;;;;;;;5126469;27;8796;-69
2024/01/29 12:26:47;;;;;;;;;35.00;30.75;;;;;;;;5127931;27;8799;-68
2024/01/29 12:29:12;;;;;;;;;35.00;31.50;;;;;;;;5116697;28;8792;-68
2024/01/29 12:31:38;;;;;;;;;32.25;32.00;;;;;;;;5113997;28;8846;-68
2024/01/29 12:34:05;;;;;;;;;33.25;31.75;;;;;;;;5113780;28;9525;-69
2024/01/29 12:36:30;;;;;;;;;33.50;30.00;;;;;;;;5113864;28;11465;-69
2024/01/29 12:38:58;;;;;;;;;30.50;28.50;;;;;;;;5123458;27;11465;-69
2024/01/29 12:41:23;;;;;;;;;27.00;26.50;;;;;;;;5115554;27;8853;-68
2024/01/29 12:43:49;;;;;;;;;28.75;28.75;;;;;;;;5114033;28;11453;-68
2024/01/29 12:46:14;;;;;;;;;34.75;28.50;;;;;;;;5113851;28;8810;-68
2024/01/29 12:48:40;;;;;;;;;29.25;29.25;;;;;;;;5113535;27;8776;-69
2024/01/29 20:51:16;;;;;;;;;62.00;49.00;;;;;;;;5104411;27;13461;-70
2024/01/29 20:53:41;;;;;;;;;56.33;47.00;;;;;;;;5128747;27;8789;-71
2024/01/29 20:56:06;;;;;;;;;61.25;48.25;;;;;;;;5112381;27;8900;-69
2024/01/29 20:58:32;;;;;;;;;49.67;43.00;;;;;;;;5106548;27;8800;-69
2024/01/29 21:00:57;;;;;;;;;43.67;38.33;;;;;;;;5127652;27;8797;-70
2024/01/29 21:03:22;;;;;;;;;51.00;43.00;;;;;;;;5124190;27;8781;-70
2024/01/29 21:05:47;;;;;;;;;54.00;42.00;;;;;;;;5099535;28;8795;-70
2024/01/29 21:08:16;;;;;;;;;54.67;44.67;;;;;;;;5106946;28;8772;-71
2024/01/29 21:10:41;;;;;;;;;55.00;46.67;;;;;;;;5106055;28;8843;-69
2024/01/29 21:13:06;;;;;;;;;59.33;46.33;;;;;;;;5107131;28;8799;-69
2024/01/29 21:15:31;;;;;;;;;62.67;50.67;;;;;;;;5107821;28;8776;-69
2024/01/29 21:17:57;;;;;;;;;58.67;49.00;;;;;;;;5108011;28;8796;-70
2024/01/29 21:20:22;;;;;;;;;62.67;49.67;;;;;;;;5106048;28;8787;-69
2024/01/29 21:22:47;;;;;;;;;60.00;49.00;;;;;;;;5107916;28;8860;-69
2024/01/29 21:25:13;;;;;;;;;59.67;49.00;;;;;;;;5107826;28;8784;-70
2024/01/29 21:27:40;;;;;;;;;58.33;48.33;;;;;;;;5107831;28;8834;-70
2024/01/29 21:30:09;;;;;;;;;58.33;46.33;;;;;;;;5106113;28;8844;-69
2024/01/29 21:32:34;;;;;;;;;59.67;45.67;;;;;;;;5107689;28;8787;-70
2024/01/29 21:35:00;;;;;;;;;60.00;46.67;;;;;;;;5107446;28;9568;-69
2024/01/29 21:37:25;;;;;;;;;47.00;41.67;;;;;;;;5106336;28;8826;-71
2024/01/29 21:39:50;;;;;;;;;41.00;37.33;;;;;;;;5105823;28;8842;-70
2024/01/29 21:42:16;;;;;;;;;60.00;47.00;;;;;;;;5107571;28;9501;-70
2024/01/29 21:44:41;;;;;;;;;45.33;42.67;;;;;;;;5068949;27;9795;-70
2024/01/29 21:47:06;;;;;;;;;57.00;44.67;;;;;;;;5058170;28;9808;-70
2024/01/29 21:49:32;;;;;;;;;43.00;42.67;;;;;;;;5045018;28;8914;-71
2024/01/29 21:51:57;;;;;;;;;48.67;43.67;;;;;;;;5046802;28;8802;-69
2024/01/29 21:54:22;;;;;;;;;53.00;43.00;;;;;;;;5046044;28;8917;-71
2024/01/29 21:56:48;;;;;;;;;47.33;42.33;;;;;;;;5044999;28;8825;-70
2024/01/29 21:59:13;;;;;;;;;43.67;37.00;;;;;;;;5044925;28;9015;-70
2024/01/29 22:01:39;;;;;;;;;48.33;41.33;;;;;;;;5037408;28;8818;-70
2024/01/29 22:04:05;;;;;;;;;46.33;43.00;;;;;;;;5032642;28;8801;-70
2024/01/29 22:06:30;;;;;;;;;45.00;42.00;;;;;;;;5032666;28;8916;-70
2024/01/29 22:08:55;;;;;;;;;39.67;36.00;;;;;;;;5032648;28;8810;-70
2024/01/29 22:11:20;;;;;;;;;43.67;40.00;;;;;;;;5032742;28;9661;-70
2024/01/29 22:13:46;;;;;;;;;41.67;37.00;;;;;;;;5032684;28;8928;-70
2024/01/29 22:16:11;;;;;;;;;44.33;42.33;;;;;;;;5032455;28;8814;-70
2024/01/29 22:18:36;;;;;;;;;41.00;40.33;;;;;;;;5032329;28;8789;-70
2024/01/29 22:21:02;;;;;;;;;38.67;37.67;;;;;;;;5032210;28;8845;-70
2024/01/29 22:23:27;;;;;;;;;42.33;37.00;;;;;;;;5029316;28;8820;-70
2024/01/29 22:25:52;;;;;;;;;44.67;39.67;;;;;;;;5028991;28;8797;-70
2024/01/29 22:28:19;;;;;;;;;49.67;38.67;;;;;;;;5031486;28;8823;-70
2024/01/29 22:30:44;;;;;;;;;44.33;39.00;;;;;;;;5032282;28;8829;-70
2024/01/29 22:33:09;;;;;;;;;47.67;37.00;;;;;;;;5032094;28;8916;-70
2024/01/29 22:35:35;;;;;;;;;47.00;40.00;;;;;;;;5032147;28;8817;-70
2024/01/29 22:38:00;;;;;;;;;41.67;38.67;;;;;;;;5032253;28;8820;-71
2024/01/29 22:40:25;;;;;;;;;37.33;35.33;;;;;;;;5032153;28;8887;-70
2024/01/29 22:42:51;;;;;;;;;44.33;42.33;;;;;;;;5032083;28;8782;-71
2024/01/29 22:45:16;;;;;;;;;48.00;40.00;;;;;;;;5032051;28;8797;-71
2024/01/29 22:47:42;;;;;;;;;42.67;37.00;;;;;;;;5031791;28;8879;-71
2024/01/29 22:50:09;;;;;;;;;37.67;34.33;;;;;;;;5031753;28;8849;-70
2024/01/29 22:52:34;;;;;;;;;41.67;36.33;;;;;;;;5031987;28;8794;-70
2024/01/29 22:54:59;;;;;;;;;37.67;35.00;;;;;;;;5031827;28;8858;-71
2024/01/29 22:57:25;;;;;;;;;39.00;35.33;;;;;;;;5031709;28;8892;-70
2024/01/29 22:59:50;;;;;;;;;38.00;34.67;;;;;;;;5026106;28;8926;-70
2024/01/29 23:02:16;;;;;;;;;41.67;36.00;;;;;;;;5030747;28;8928;-71
2024/01/29 23:04:41;;;;;;;;;38.33;34.33;;;;;;;;5031674;28;8813;-70
2024/01/29 23:07:06;;;;;;;;;38.33;31.00;;;;;;;;5031881;28;8918;-70
2024/01/29 23:09:31;;;;;;;;;38.00;32.67;;;;;;;;5028078;28;8814;-70
2024/01/29 23:11:57;;;;;;;;;27.67;22.67;;;;;;;;5030637;28;8782;-70
2024/01/29 23:14:22;;;;;;;;;41.00;33.33;;;;;;;;5030647;28;8821;-70
2024/01/29 23:16:48;;;;;;;;;37.00;31.67;;;;;;;;5032272;28;8886;-69
2024/01/29 23:19:13;;;;;;;;;36.67;36.67;;;;;;;;4994917;23;9006;-72
2024/01/29 23:21:39;;;;;;;;;38.33;32.33;;;;;;;;4972533;28;8792;-74
2024/01/29 23:24:04;;;;;;;;;34.67;31.00;;;;;;;;4971999;28;8821;-74
2024/01/29 23:26:29;;;;;;;;;38.33;32.67;;;;;;;;4971936;28;8792;-72
2024/01/29 23:28:55;;;;;;;;;34.67;32.67;;;;;;;;4971559;28;9657;-71
2024/01/29 23:31:21;;;;;;;;;41.33;34.33;;;;;;;;4971536;28;8791;-72
2024/01/29 23:33:46;;;;;;;;;34.67;32.00;;;;;;;;4971581;28;8816;-73
2024/01/29 23:36:15;;;;;;;;;38.33;33.33;;;;;;;;4954370;28;8823;-73
2024/01/29 23:38:41;;;;;;;;;33.33;33.33;;;;;;;;4971632;28;8820;-74
2024/01/29 23:41:06;;;;;;;;;36.67;32.33;;;;;;;;4971605;28;8827;-74
2024/01/29 23:43:31;;;;;;;;;38.00;32.67;;;;;;;;4954242;28;8823;-74
2024/01/29 23:45:56;;;;;;;;;31.33;30.00;;;;;;;;4971516;28;9811;-73
2024/01/29 23:48:22;;;;;;;;;32.00;29.67;;;;;;;;4954443;28;8797;-76
